Flight Track Log - Related Links

Times and Time Zones

All times are in EDT time to prevent confusion due to time zone crossing. See the ASA6 flight status page for this flight to view local times or setup timezone preferences in your user account.

Time Position Orientation Groundspeed Altitude Reporting Facility
EDT Latitude Longitude Course Direction KTS MPH feet Rate Location/Type
Fri 04:18:41 PM 33.9333 -118.4667 224° Southwest 197 227 2,000  Level Southern California TRACON
Fri 04:19:35 PM 33.8844 -118.5233 210° Southwest 267 307 3,800 2,316 Climbing Los Angeles Center
Fri 04:20:35 PM 33.8253 -118.5642 166° South 292 336 6,400 2,550 Climbing Los Angeles Center
Fri 04:21:35 PM 33.7339 -118.5367 145° Southeast 312 359 8,900 2,500 Climbing Los Angeles Center
Fri 04:22:35 PM 33.6703 -118.4825 107° East 312 359 11,400 1,750 Climbing Los Angeles Center
Fri 04:23:35 PM 33.6411 -118.3692 90° East 309 356 12,400 1,650 Climbing Los Angeles Center
Fri 04:24:35 PM 33.6414 -118.2394 89° East 334 384 14,700 2,250 Climbing Los Angeles Center
Fri 04:25:35 PM 33.6436 -118.1122 89° East 356 410 16,900 1,800 Climbing Los Angeles Center
Fri 04:26:35 PM 33.6458 -117.9750 91° East 386 444 18,300 1,250 Climbing Los Angeles Center
Fri 04:27:35 PM 33.6439 -117.8106 90° East 413 475 19,400 1,400 Climbing Los Angeles Center
Fri 04:28:35 PM 33.6439 -117.6558 90° East 448 516 21,100 1,550 Climbing Los Angeles Center
Fri 04:29:35 PM 33.6436 -117.4961 88° East 466 536 22,500 1,008 Climbing Los Angeles Center
Fri 04:30:34 PM 33.6475 -117.3364 76° East 472 543 23,100 958 Climbing Los Angeles Center
Fri 04:31:34 PM 33.6803 -117.1797 77° East 480 552 24,400 1,190 Climbing Los Angeles Center
Fri 04:32:35 PM 33.7086 -117.0350 78° East 480 552 25,500 1,140 Climbing Los Angeles Center
Fri 04:33:35 PM 33.7389 -116.8681 78° East 490 564 26,700 1,350 Climbing Los Angeles Center
Fri 04:34:35 PM 33.7669 -116.7033 79° East 502 578 28,200 1,450 Climbing Los Angeles Center
Fri 04:35:35 PM 33.7947 -116.5361 78° East 507 583 29,600 1,250 Climbing Los Angeles Center
Fri 04:36:35 PM 33.8267 -116.3564 78° East 507 583 30,700 1,100 Climbing Los Angeles Center
Fri 04:37:35 PM 33.8561 -116.1886 79° East 507 583 31,800 1,059 Climbing Los Angeles Center
Fri 04:38:34 PM 33.8831 -116.0211 78° East 507 583 32,800 958 Climbing Los Angeles Center
Fri 04:39:34 PM 33.9122 -115.8533 79° East 507 583 33,700 850 Climbing Los Angeles Center
Fri 04:40:34 PM 33.9386 -115.6831 78° East 507 583 34,500 650 Climbing Los Angeles Center
Fri 04:41:34 PM 33.9672 -115.5175 78° East 507 583 35,000 248 Climbing Los Angeles Center
Fri 04:42:35 PM 33.9956 -115.3494 80° East 507 583 35,000  Level Los Angeles Center
Fri 04:43:34 PM 34.0214 -115.1789 79° East 507 583 35,000  Level Los Angeles Center
Fri 04:44:34 PM 34.0492 -115.0106 79° East 507 583 35,000  Level Los Angeles Center
Fri 04:45:35 PM 34.0747 -114.8447 79° East 507 583 35,000  Level Los Angeles Center
Fri 04:46:34 PM 34.1022 -114.6786 71° East 507 583 35,000  Level Los Angeles Center
Fri 04:48:19 PM 34.1764 -114.4175 72° East 519 597 35,000  Level Albuquerque Center
Fri 04:49:19 PM 34.2244 -114.2406 71° East 505 581 35,000  Level Albuquerque Center
Fri 04:50:18 PM 34.2692 -114.0786 72° East 505 581 35,000  Level Albuquerque Center
Fri 04:51:18 PM 34.3136 -113.9161 72° East 510 587 35,000  Level Albuquerque Center
Fri 04:52:18 PM 34.3578 -113.7536 71° East 510 587 35,000  Level Albuquerque Center
Fri 04:53:18 PM 34.4042 -113.5886 71° East 510 587 35,000  Level Albuquerque Center
Fri 04:54:18 PM 34.4500 -113.4258 72° East 510 587 35,000  Level Albuquerque Center
Fri 04:55:18 PM 34.4939 -113.2578 70° East 510 587 35,000  Level Albuquerque Center
Fri 04:56:18 PM 34.5414 -113.0947 73° East 510 587 35,000  Level Albuquerque Center
Fri 04:57:18 PM 34.5800 -112.9436 72° East 510 587 35,000  Level Albuquerque Center
Fri 04:58:19 PM 34.6228 -112.7800 72° East 510 587 35,000  Level Albuquerque Center
Fri 04:59:18 PM 34.6681 -112.6111 72° East 510 587 35,000  Level Albuquerque Center
Fri 05:00:18 PM 34.7106 -112.4472 75° East 510 587 35,000  Level Albuquerque Center
Fri 05:01:18 PM 34.7489 -112.2778 75° East 510 587 35,000  Level Albuquerque Center
Fri 05:02:18 PM 34.7872 -112.1081 75° East 510 587 35,000  Level Albuquerque Center
Fri 05:03:18 PM 34.8250 -111.9383 75° East 510 587 35,000  Level Albuquerque Center
Fri 05:04:19 PM 34.8625 -111.7708 74° East 510 587 35,000  Level Albuquerque Center
Fri 05:05:19 PM 34.9019 -111.6033 75° East 505 581 35,000  Level Albuquerque Center
Fri 05:06:19 PM 34.9392 -111.4353 75° East 511 588 35,000  Level Albuquerque Center
Fri 05:07:18 PM 34.9761 -111.2675 74° East 505 581 35,000  Level Albuquerque Center
Fri 05:08:18 PM 35.0147 -111.1069 76° East 505 581 35,000  Level Albuquerque Center
Fri 05:09:18 PM 35.0467 -110.9461 74° East 500 575 35,000  Level Albuquerque Center
Fri 05:10:18 PM 35.0850 -110.7803 76° East 500 575 35,000  Level Albuquerque Center
Fri 05:11:18 PM 35.1233 -110.5964 75° East 500 575 35,000  Level Albuquerque Center
Fri 05:12:18 PM 35.1592 -110.4278 75° East 507 583 35,000  Level Albuquerque Center
Fri 05:13:18 PM 35.1947 -110.2614 76° East 507 583 35,000  Level Albuquerque Center
Fri 05:14:18 PM 35.2275 -110.1047 76° East 507 583 35,000  Level Albuquerque Center
Fri 05:15:18 PM 35.2650 -109.9128 76° East 513 590 35,000  Level Albuquerque Center
Fri 05:16:18 PM 35.3000 -109.7433 75° East 519 597 35,000  Level Albuquerque Center
Fri 05:17:18 PM 35.3319 -109.5917 76° East 514 592 35,000  Level Albuquerque Center
Fri 05:18:18 PM 35.3664 -109.4269 76° East 504 580 35,000  Level Albuquerque Center
Fri 05:19:18 PM 35.4028 -109.2419 77° East 504 580 35,000  Level Albuquerque Center
Fri 05:20:18 PM 35.4344 -109.0769 76° East 504 580 35,000  Level Albuquerque Center
Fri 05:21:18 PM 35.4658 -108.9244 73° East 504 580 35,000  Level Albuquerque Center
Fri 05:22:18 PM 35.5097 -108.7442 71° East 504 580 35,000  Level Albuquerque Center
Fri 05:23:18 PM 35.5553 -108.5792 72° East 509 586 35,000  Level Albuquerque Center
Fri 05:24:18 PM 35.5986 -108.4136 71° East 509 586 35,000  Level Albuquerque Center
Fri 05:25:18 PM 35.6394 -108.2658 72° East 509 586 35,000  Level Albuquerque Center
Fri 05:26:18 PM 35.6867 -108.0850 72° East 504 580 35,000  Level Albuquerque Center
Fri 05:27:18 PM 35.7314 -107.9164 72° East 504 580 35,000  Level Albuquerque Center
Fri 05:28:18 PM 35.7694 -107.7708 72° East 499 574 35,000  Level Albuquerque Center
Fri 05:29:18 PM 35.8139 -107.6044 72° East 499 574 35,000  Level Albuquerque Center
Fri 05:30:18 PM 35.8619 -107.4200 73° East 505 581 35,000  Level Albuquerque Center
Fri 05:31:18 PM 35.9017 -107.2561 72° East 499 574 35,000  Level Albuquerque Center
Fri 05:32:18 PM 35.9411 -107.1047 72° East 499 574 35,000  Level Albuquerque Center
Fri 05:33:18 PM 35.9886 -106.9222 73° East 499 574 35,000  Level Albuquerque Center
Fri 05:34:18 PM 36.0294 -106.7550 72° East 504 580 35,000  Level Albuquerque Center
Fri 05:35:18 PM 36.0722 -106.5878 72° East 504 580 35,000  Level Albuquerque Center
Fri 05:36:18 PM 36.1131 -106.4356 72° East 504 580 35,000  Level Albuquerque Center
Fri 05:37:18 PM 36.1575 -106.2653 74° East 511 588 35,000  Level Albuquerque Center
Fri 05:38:18 PM 36.1975 -106.0897 72° East 511 588 35,000  Level Albuquerque Center
Fri 05:39:18 PM 36.2414 -105.9189 72° East 517 595 35,000  Level Albuquerque Center
Fri 05:40:18 PM 36.2853 -105.7481 75° East 522 601 35,000  Level Albuquerque Center
Fri 05:41:18 PM 36.3244 -105.5719 72° East 522 601 35,000  Level Albuquerque Center
Fri 05:42:18 PM 36.3697 -105.3983 75° East 522 601 35,000  Level Albuquerque Center
Fri 05:43:18 PM 36.4083 -105.2244 74° East 522 601 35,000  Level Albuquerque Center
Fri 05:44:18 PM 36.4492 -105.0503 73° East 516 594 35,000  Level Albuquerque Center
Fri 05:45:18 PM 36.4914 -104.8758 66° East 522 601 35,000  Level Albuquerque Center
Fri 05:46:18 PM 36.5583 -104.6900 65° Northeast 522 601 35,000  Level Albuquerque Center
Fri 05:47:18 PM 36.6194 -104.5275 67° East 522 601 35,000  Level Albuquerque Center
Fri 05:48:18 PM 36.6719 -104.3756 65° Northeast 527 606 35,000  Level Albuquerque Center
Fri 05:49:18 PM 36.7383 -104.1967 66° East 527 606 35,000  Level Albuquerque Center
Fri 05:50:18 PM 36.7983 -104.0283 65° Northeast 527 606 35,000 100 Level Albuquerque Center
Fri 05:51:18 PM 36.8583 -103.8647 66° East 522 601 35,200 700 Climbing Albuquerque Center
Fri 05:52:18 PM 36.9103 -103.7169 66° East 522 601 36,400 900 Climbing Albuquerque Center
Fri 05:53:18 PM 36.9717 -103.5400 65° Northeast 503 579 37,000 298 Climbing Albuquerque Center
Fri 05:54:19 PM 37.0311 -103.3783 66° East 503 579 37,000  Level Albuquerque Center
Fri 05:55:19 PM 37.0825 -103.2322 66° East 510 587 37,000  Level Albuquerque Center
Fri 05:56:18 PM 37.1431 -103.0572 67° East 497 572 37,000  Level Albuquerque Center
Fri 05:58:35 PM 37.2667 -102.6964 67° East 495 570 37,000  Level Kansas City Center
Fri 05:59:35 PM 37.3161 -102.5531 66° East 495 570 37,000  Level Kansas City Center
Fri 06:00:35 PM 37.3725 -102.3942 68° East 495 570 37,000  Level Kansas City Center
Fri 06:01:35 PM 37.4303 -102.2169 67° East 503 579 37,000  Level Kansas City Center
Fri 06:02:35 PM 37.4819 -102.0600 67° East 503 579 37,000  Level Kansas City Center
Fri 06:03:35 PM 37.5306 -101.9156 67° East 503 579 37,000  Level Kansas City Center
Fri 06:04:35 PM 37.5894 -101.7406 68° East 497 572 37,000  Level Kansas City Center
Fri 06:05:35 PM 37.6406 -101.5828 67° East 491 565 37,000  Level Kansas City Center
Fri 06:06:35 PM 37.6917 -101.4272 67° East 484 557 37,000  Level Kansas City Center
Fri 06:07:35 PM 37.7394 -101.2847 67° East 484 557 37,000  Level Kansas City Center
Fri 06:08:35 PM 37.7922 -101.1264 74° East 484 557 37,000  Level Kansas City Center
Fri 06:09:35 PM 37.8311 -100.9483 76° East 479 551 37,000  Level Kansas City Center
Fri 06:10:35 PM 37.8653 -100.7778 76° East 490 564 37,000  Level Kansas City Center
Fri 06:11:35 PM 37.8967 -100.6117 76° East 485 558 37,000  Level Kansas City Center
Fri 06:12:35 PM 37.9250 -100.4667 76° East 485 558 37,000  Level Kansas City Center
Fri 06:13:35 PM 37.9561 -100.3031 76° East 485 558 37,000  Level Kansas City Center
Fri 06:14:35 PM 37.9917 -100.1242 76° East 485 558 37,000  Level Kansas City Center
Fri 06:15:35 PM 38.0244 -99.9578 77° East 485 558 37,000  Level Kansas City Center
Fri 06:16:35 PM 38.0519 -99.8094 76° East 485 558 37,000  Level Kansas City Center
Fri 06:17:35 PM 38.0842 -99.6428 75° East 485 558 37,000  Level Kansas City Center
Fri 06:18:35 PM 38.1181 -99.4842 78° East 480 552 37,000  Level Kansas City Center
Fri 06:19:35 PM 38.1458 -99.3169 75° East 480 552 37,000  Level Kansas City Center
Fri 06:20:35 PM 38.1794 -99.1528 77° East 480 552 37,000  Level Kansas City Center
Fri 06:21:35 PM 38.2108 -98.9828 77° East 480 552 37,000  Level Kansas City Center
Fri 06:22:35 PM 38.2400 -98.8208 77° East 480 552 37,000  Level Kansas City Center
Fri 06:23:35 PM 38.2708 -98.6558 78° East 480 552 37,000  Level Kansas City Center
Fri 06:24:35 PM 38.2994 -98.4881 77° East 480 552 37,000  Level Kansas City Center
Fri 06:25:35 PM 38.3297 -98.3256 77° East 480 552 37,000  Level Kansas City Center
Fri 06:26:35 PM 38.3597 -98.1631 78° East 480 552 37,000  Level Kansas City Center
Fri 06:27:35 PM 38.3878 -97.9947 77° East 480 552 37,000  Level Kansas City Center
Fri 06:28:35 PM 38.4200 -97.8133 78° East 480 552 37,000  Level Kansas City Center
Fri 06:29:35 PM 38.4475 -97.6422 76° East 485 558 37,000  Level Kansas City Center
Fri 06:30:35 PM 38.4767 -97.4897 78° East 485 558 37,000  Level Kansas City Center
Fri 06:31:35 PM 38.5036 -97.3211 79° East 485 558 37,000  Level Kansas City Center
Fri 06:32:35 PM 38.5328 -97.1364 77° East 485 558 37,000  Level Kansas City Center
Fri 06:33:35 PM 38.5636 -96.9647 79° East 485 558 37,000  Level Kansas City Center
Fri 06:34:35 PM 38.5897 -96.7958 78° East 485 558 37,000  Level Kansas City Center
Fri 06:35:35 PM 38.6181 -96.6292 79° East 485 558 37,000  Level Kansas City Center
Fri 06:36:35 PM 38.6439 -96.4597 78° East 485 558 37,000  Level Kansas City Center
Fri 06:37:35 PM 38.6689 -96.3114 78° East 485 558 37,000  Level Kansas City Center
Fri 06:38:35 PM 38.6989 -96.1261 79° East 480 552 37,000  Level Kansas City Center
Fri 06:39:35 PM 38.7239 -95.9617 79° East 480 552 37,000  Level Kansas City Center
Fri 06:40:35 PM 38.7464 -95.8131 78° East 474 545 37,000  Level Kansas City Center
Fri 06:41:35 PM 38.7731 -95.6511 80° East 468 539 37,000  Level Kansas City Center
Fri 06:42:35 PM 38.7975 -95.4675 79° East 468 539 37,000  Level Kansas City Center
Fri 06:43:35 PM 38.8217 -95.3028 78° East 468 539 37,000  Level Kansas City Center
Fri 06:44:35 PM 38.8456 -95.1536 79° East 473 544 37,000  Level Kansas City Center
Fri 06:45:35 PM 38.8736 -94.9672 79° East 473 544 37,000  Level Kansas City Center
Fri 06:46:35 PM 38.8969 -94.8075 79° East 466 536 37,000  Level Kansas City Center
Fri 06:47:35 PM 38.9203 -94.6553 80° East 466 536 37,000  Level Kansas City Center
Fri 06:48:35 PM 38.9433 -94.4847 79° East 476 548 37,000  Level Kansas City Center
Fri 06:49:35 PM 38.9700 -94.3003 80° East 476 548 37,000  Level Kansas City Center
Fri 06:50:35 PM 38.9928 -94.1347 79° East 476 548 37,000  Level Kansas City Center
Fri 06:51:35 PM 39.0150 -93.9822 80° East 482 555 37,000  Level Kansas City Center
Fri 06:52:35 PM 39.0411 -93.7950 80° East 482 555 37,000  Level Kansas City Center
Fri 06:53:35 PM 39.0631 -93.6264 80° East 482 555 37,000  Level Kansas City Center
Fri 06:54:35 PM 39.0867 -93.4603 79° East 482 555 37,000  Level Kansas City Center
Fri 06:55:35 PM 39.1100 -93.2994 80° East 467 537 37,000  Level Kansas City Center
Fri 06:56:35 PM 39.1314 -93.1358 81° East 467 537 37,000  Level Kansas City Center
Fri 06:57:35 PM 39.1503 -92.9803 80° East 473 544 37,000  Level Kansas City Center
Fri 06:58:35 PM 39.1711 -92.8192 80° East 473 544 37,000  Level Kansas City Center
Fri 06:59:35 PM 39.1917 -92.6633 80° East 457 526 37,000  Level Kansas City Center
Fri 07:00:35 PM 39.2139 -92.4967 79° East 457 526 37,000  Level Kansas City Center
Fri 07:01:35 PM 39.2400 -92.3217 81° East 457 526 37,000  Level Kansas City Center
Fri 07:02:35 PM 39.2600 -92.1603 85° East 457 526 37,000  Level Kansas City Center
Fri 07:03:35 PM 39.2694 -92.0153 80° East 452 520 37,000  Level Kansas City Center
Fri 07:04:35 PM 39.2911 -91.8536 81° East 452 520 37,000  Level Kansas City Center
Fri 07:05:35 PM 39.3122 -91.6892 82° East 452 520 37,000  Level Kansas City Center
Fri 07:06:35 PM 39.3292 -91.5275 81° East 452 520 37,000  Level Kansas City Center
Fri 07:07:35 PM 39.3500 -91.3628 82° East 452 520 37,000  Level Kansas City Center
Fri 07:08:35 PM 39.3683 -91.1875 81° East 447 514 37,000  Level Kansas City Center
Fri 07:09:35 PM 39.3867 -91.0283 81° East 447 514 37,000  Level Kansas City Center
Fri 07:10:35 PM 39.4067 -90.8608 83° East 452 520 37,000  Level Kansas City Center
Fri 07:11:35 PM 39.4225 -90.7014 80° East 452 520 37,000  Level Kansas City Center
Fri 07:12:35 PM 39.4442 -90.5336 82° East 452 520 37,000  Level Kansas City Center
Fri 07:13:35 PM 39.4617 -90.3739 84° East 452 520 37,000  Level Kansas City Center
Fri 07:14:35 PM 39.4747 -90.2092 81° East 452 520 37,000  Level Kansas City Center
Fri 07:15:35 PM 39.4939 -90.0519 83° East 446 513 37,000  Level Kansas City Center
Fri 07:16:35 PM 39.5072 -89.9033 82° East 451 519 37,000  Level Kansas City Center
Fri 07:17:35 PM 39.5236 -89.7408 84° East 451 519 37,000  Level Kansas City Center
Fri 07:18:35 PM 39.5378 -89.5756 82° East 451 519 37,000  Level Kansas City Center
Fri 07:19:35 PM 39.5542 -89.4183 83° East 451 519 37,000  Level Kansas City Center
Fri 07:20:35 PM 39.5700 -89.2528 83° East 451 519 37,000  Level Kansas City Center
Fri 07:21:35 PM 39.5856 -89.0903 84° East 451 519 37,000  Level Kansas City Center
Fri 07:26:07 PM 39.6475 -88.3464 81° East 456 525 37,000  Level Indianapolis Center
Fri 07:27:07 PM 39.6667 -88.1831 83° East 456 525 37,000  Level Indianapolis Center
Fri 07:28:07 PM 39.6808 -88.0247 83° East 451 519 37,000  Level Indianapolis Center
Fri 07:29:07 PM 39.6953 -87.8611 83° East 451 519 37,000  Level Indianapolis Center
Fri 07:30:07 PM 39.7094 -87.7000 83° East 451 519 37,000  Level Indianapolis Center
Fri 07:31:07 PM 39.7233 -87.5414 84° East 441 507 37,000  Level Indianapolis Center
Fri 07:32:07 PM 39.7344 -87.3964 84° East 441 507 37,000  Level Indianapolis Center
Fri 07:33:07 PM 39.7478 -87.2378 85° East 441 507 37,000  Level Indianapolis Center
Fri 07:34:07 PM 39.7589 -87.0761 86° East 441 507 37,000  Level Indianapolis Center
Fri 07:35:07 PM 39.7678 -86.9172 85° East 446 513 37,000  Level Indianapolis Center
Fri 07:36:07 PM 39.7783 -86.7556 86° East 440 506 37,000  Level Indianapolis Center
Fri 07:37:07 PM 39.7867 -86.5967 85° East 440 506 37,000  Level Indianapolis Center
Fri 07:38:07 PM 39.7975 -86.4186 85° East 440 506 37,000  Level Indianapolis Center
Fri 07:39:07 PM 39.8072 -86.2678 87° East 451 519 37,000  Level Indianapolis Center
Fri 07:40:07 PM 39.8156 -86.0869 87° East 457 526 37,000  Level Indianapolis Center
Fri 07:41:07 PM 39.8228 -85.9306 87° East 457 526 37,000  Level Indianapolis Center
Fri 07:42:07 PM 39.8278 -85.7872 86° East 452 520 37,000  Level Indianapolis Center
Fri 07:43:07 PM 39.8369 -85.6253 87° East 447 514 37,000  Level Indianapolis Center
Fri 07:44:07 PM 39.8439 -85.4578 86° East 447 514 37,000  Level Indianapolis Center
Fri 07:45:07 PM 39.8528 -85.2958 88° East 447 514 37,000  Level Indianapolis Center
Fri 07:46:07 PM 39.8569 -85.1336 87° East 447 514 37,000  Level Indianapolis Center
Fri 07:47:07 PM 39.8633 -84.9717 86° East 447 514 37,000  Level Indianapolis Center
Fri 07:48:07 PM 39.8714 -84.8122 87° East 441 507 37,000  Level Indianapolis Center
Fri 07:49:07 PM 39.8769 -84.6553 87° East 436 502 37,000  Level Indianapolis Center
Fri 07:50:07 PM 39.8828 -84.4794 87° East 436 502 37,000  Level Indianapolis Center
Fri 07:51:07 PM 39.8881 -84.3228 87° East 436 502 37,000  Level Indianapolis Center
Fri 07:52:08 PM 39.8953 -84.1631 89° East 441 507 37,000  Level Indianapolis Center
Fri 07:53:07 PM 39.8981 -84.0036 87° East 441 507 37,000  Level Indianapolis Center
Fri 07:54:07 PM 39.9047 -83.8467 88° East 441 507 37,000  Level Indianapolis Center
Fri 07:55:07 PM 39.9092 -83.6869 88° East 436 502 37,000  Level Indianapolis Center
Fri 07:56:07 PM 39.9133 -83.5353 96° East 447 514 37,000  Level Indianapolis Center
Fri 07:57:07 PM 39.9008 -83.3756 101° East 447 514 37,000  Level Indianapolis Center
Fri 07:58:07 PM 39.8753 -83.2108 102° East 457 526 37,000  Level Indianapolis Center
Fri 07:59:07 PM 39.8478 -83.0406 101° East 451 519 37,000  Level Indianapolis Center
Fri 08:00:07 PM 39.8239 -82.8839 102° East 446 513 37,000  Level Indianapolis Center
Fri 08:01:07 PM 39.7978 -82.7194 102° East 451 519 37,000  Level Indianapolis Center
Fri 08:02:07 PM 39.7717 -82.5575 102° East 451 519 37,000  Level Indianapolis Center
Fri 08:04:07 PM 39.7175 -82.2319 103° East 456 525 37,000  Level Cleveland Center
Fri 08:05:07 PM 39.6883 -82.0694 101° East 456 525 37,000  Level Cleveland Center
Fri 08:06:07 PM 39.6633 -81.9072 103° East 456 525 37,000  Level Cleveland Center
Fri 08:07:07 PM 39.6339 -81.7475 100° East 456 525 37,000  Level Cleveland Center
Fri 08:08:07 PM 39.6144 -81.5989 103° East 456 525 37,000  Level Cleveland Center
Fri 08:09:07 PM 39.5867 -81.4394 104° East 456 525 37,000  Level Cleveland Center
Fri 08:10:07 PM 39.5564 -81.2778 101° East 451 519 37,000  Level Cleveland Center
Fri 08:11:07 PM 39.5322 -81.1214 92° East 451 519 37,000  Level Cleveland Center
Fri 08:12:07 PM 39.5286 -80.9625 90° East 446 513 37,000  Level Cleveland Center
Fri 08:13:07 PM 39.5292 -80.7903 107° East 441 507 37,000  Level Cleveland Center
Fri 08:14:07 PM 39.4939 -80.6369 107° East 441 507 37,000  Level Cleveland Center
Fri 08:15:07 PM 39.4583 -80.4864 107° East 435 501 37,000  Level Cleveland Center
Fri 08:15:54 PM 39.4314 -80.3719 107° East 434 499 37,000 -505 Level Washington Center
Fri 08:16:54 PM 39.3992 -80.2356 108° East 429 494 36,100 -1,800 Descending Washington Center
Fri 08:17:54 PM 39.3611 -80.0853 107° East 429 494 33,400 -2,678 Descending Washington Center
Fri 08:18:55 PM 39.3250 -79.9328 106° East 435 501 30,700 -2,182 Descending Washington Center
Fri 08:19:55 PM 39.2928 -79.7833 95° East 435 501 29,000 -857 Descending Washington Center
Fri 08:20:54 PM 39.2814 -79.6272 96° East 429 494 29,000  Level Washington Center
Fri 08:21:55 PM 39.2681 -79.4628 96° East 442 509 29,000 -149 Level Washington Center
Fri 08:22:55 PM 39.2542 -79.3039 98° East 447 514 28,700 -1,289 Descending Washington Center
Fri 08:23:56 PM 39.2364 -79.1342 97° East 442 509 26,400 -2,218 Descending Washington Center
Fri 08:24:54 PM 39.2219 -78.9889 97° East 428 493 24,300 -2,085 Descending Washington Center
Fri 08:25:54 PM 39.2092 -78.8489 97° East 412 474 22,300 -1,983 Descending Washington Center
Fri 08:26:55 PM 39.1961 -78.7144 98° East 396 456 20,300 -1,869 Descending Washington Center
Fri 08:27:56 PM 39.1825 -78.5853 97° East 377 434 18,500 -1,850 Descending Washington Center
Fri 08:28:55 PM 39.1711 -78.4589 101° East 366 421 16,600 -1,765 Descending Washington Center
Fri 08:29:55 PM 39.1531 -78.3353 115° Southeast 355 409 15,000 -793 Descending Washington Center
Fri 08:30:56 PM 39.1158 -78.2322 124° Southeast 336 387 15,000 -347 Level Washington Center
Fri 08:31:56 PM 39.0697 -78.1447 141° Southeast 314 361 14,300 -1,119 Descending Washington Center
Fri 08:32:54 PM 39.0003 -78.0731 106° East 306 352 12,800 -1,563 Descending Washington Center
Fri 08:33:55 PM 38.9794 -77.9814 102° East 300 345 11,200 -885 Descending Washington Center
Fri 08:34:56 PM 38.9606 -77.8714 103° East 285 328 11,000 -605 Descending Washington Center
Fri 08:35:54 PM 38.9417 -77.7667 96° East 291 335 10,000 -1,059 Descending Washington Center
Fri 08:36:55 PM 38.9331 -77.6650 90° East 286 329 8,900 -1,226 Descending Washington Center
Fri 08:37:27 PM 38.9333 -77.6000 90° East 280 322 8,100 -587 Descending Potomac TRACON
Fri 08:38:27 PM 38.9333 -77.5000 102° East 269 310 8,000 -524 Descending Potomac TRACON
Fri 08:39:33 PM 38.9167 -77.4000 104° East 278 320 7,000 -1,000 Descending Potomac TRACON
Fri 08:40:27 PM 38.9000 -77.3167 104° East 273 314 6,000 -526 Descending Potomac TRACON
Fri 08:41:27 PM 38.8833 -77.2333 104° East 223 257 6,000  Level Potomac TRACON
Fri 08:42:33 PM 38.8667 -77.1500 153° Southeast 219 252 6,000 -99 Level Potomac TRACON
Fri 08:43:28 PM 38.8167 -77.1167 180° South 237 273 5,800 -678 Descending Potomac TRACON
Fri 08:44:28 PM 38.7667 -77.1167 180° South 213 245 4,700 -900 Descending Potomac TRACON
Fri 08:45:28 PM 38.7000 -77.1167 159° South 203 234 4,000 -800 Descending Potomac TRACON
Fri 08:46:28 PM 38.6667 -77.1000 67° East 192 221 3,100 -496 Descending Potomac TRACON
Fri 08:47:29 PM 38.6833 -77.0500 38° Northeast 160 184 3,000 -347 Descending Potomac TRACON
Fri 08:48:29 PM 38.7167 -77.0167 345° North 174 200 2,400 -750 Descending Potomac TRACON
Fri 08:49:29 PM 38.7667 -77.0333 360° North 171 197 1,500 -900 Descending Potomac TRACON
Fri 08:50:29 PM 38.8167 -77.0333 360° North 151 174 600 -900 Descending Potomac TRACON
Fri 08:57:32 PM 38.8500 -77.0333 301° West  Level FlightAware Approximate
Fri 08:58:32 PM 38.9153 -77.1712 301° West  Level Estimated

Login

Don't have an account? Register now (free) for customized features, flight alerts, and more!